This is the latest recevied weather packets stored in our database for station/object KK7UNF. If no packets are shown the sender has not sent any weather packets the latest 10 day(s).
| Time | Temp. | Humidity | Pressure | Rain* | Wind** | Luminosity | Snow |
|---|---|---|---|---|---|---|---|
| 1777544151 | 8.89° C | 91% | 1022.1 hPa | 0 mm | - | 0 W/m² | - |
| 1777536940 | 10° C | 87% | 1022.7 hPa | 0 mm | - | 0 W/m² | - |
| 1777529740 | 12.22° C | 82% | 1022.8 hPa | 0 mm | - | 0 W/m² | - |
| 1777527043 | 12.78° C | 79% | 1023.1 hPa | 0 mm | - | 0 W/m² | - |
| 1777524345 | 13.33° C | 77% | 1023.1 hPa | 0 mm | - | 0 W/m² | - |
| 1777523445 | 13.89° C | 77% | 1023 hPa | 0 mm | - | 0 W/m² | - |
| 1777520737 | 15° C | 74% | 1022.6 hPa | 0 mm | - | 0 W/m² | - |
| 1777504547 | 18.89° C | 61% | 1023 hPa | 0 mm | - | 100 W/m² | - |
| 1777500941 | 19.44° C | 62% | 1023.5 hPa | 0 mm | - | 297 W/m² | - |
| 1777497340 | 20° C | 60% | 1023.8 hPa | 0 mm | - | 710 W/m² | - |
| 1777493743 | 18.89° C | 62% | 1024.3 hPa | 0 mm | - | 758 W/m² | - |
| 1777489246 | 15° C | 73% | 1024.7 hPa | 0 mm | - | 63 W/m² | - |
| 1777488357 | 14.44° C | 74% | 1024.9 hPa | 0 mm | - | 62 W/m² | - |
| 1777483840 | 11.67° C | 85% | 1025.4 hPa | 0 mm | - | 51 W/m² | - |
| 1777482950 | 11.11° C | 86% | 1025.6 hPa | 0 mm | - | 49 W/m² | - |
| 1777481151 | 10° C | 89% | 1025.8 hPa | 0 mm | - | 47 W/m² | - |
| 1777480240 | 10° C | 89% | 1025.9 hPa | 0 mm | - | 46 W/m² | - |
| 1777477541 | 8.89° C | 91% | 1026.2 hPa | 0 mm | - | 40 W/m² | - |
| 1777476642 | 8.33° C | 91% | 1026.3 hPa | 0 mm | - | 39 W/m² | - |
| 1777472141 | 7.78° C | 91% | 1026 hPa | 0 mm | - | 26 W/m² | - |
| 1777471241 | 7.78° C | 90% | 1025.9 hPa | 0 mm | - | 19 W/m² | - |
| 1777470336 | 7.78° C | 90% | 1025.8 hPa | 0 mm | - | 9 W/m² | - |
| 1777464045 | 8.89° C | 90% | 1025.3 hPa | 0 mm | - | 0 W/m² | - |
| 1777461346 | 8.89° C | 89% | 1025.3 hPa | 0 mm | - | 0 W/m² | - |
| 1777452344 | 10° C | 89% | 1025.4 hPa | 0 mm | - | 0 W/m² | - |
* Rain latest hour (hover to see other rain measurements)
** Current wind speed in m/s (hover to see current wind gust speed)